sensor_id;sensor_type;location;lat;lon;timestamp;P1;durP1;ratioP1;P2;durP2;ratioP2
29412;SDS011;16389;50.126;8.450;2023-05-07T00:02:06;0.90;;;0.70;;
29412;SDS011;16389;50.126;8.450;2023-05-07T00:04:32;1.55;;;1.10;;
29412;SDS011;16389;50.126;8.450;2023-05-07T00:07:01;1.20;;;0.95;;
29412;SDS011;16389;50.126;8.450;2023-05-07T00:09:27;1.10;;;0.80;;
29412;SDS011;16389;50.126;8.450;2023-05-07T00:11:53;2.25;;;1.33;;
29412;SDS011;16389;50.126;8.450;2023-05-07T00:14:18;0.90;;;0.85;;
29412;SDS011;16389;50.126;8.450;2023-05-07T00:16:44;1.00;;;0.70;;
29412;SDS011;16389;50.126;8.450;2023-05-07T00:19:10;0.80;;;0.70;;
29412;SDS011;16389;50.126;8.450;2023-05-07T00:21:36;2.95;;;1.13;;
29412;SDS011;16389;50.126;8.450;2023-05-07T00:24:01;1.15;;;0.90;;
29412;SDS011;16389;50.126;8.450;2023-05-07T00:26:27;0.85;;;0.85;;
29412;SDS011;16389;50.126;8.450;2023-05-07T00:28:52;2.38;;;0.90;;
29412;SDS011;16389;50.126;8.450;2023-05-07T00:31:18;2.47;;;0.70;;
29412;SDS011;16389;50.126;8.450;2023-05-07T00:33:44;1.55;;;0.63;;
29412;SDS011;16389;50.126;8.450;2023-05-07T00:36:09;3.38;;;0.90;;
29412;SDS011;16389;50.126;8.450;2023-05-07T00:38:35;3.10;;;0.95;;
29412;SDS011;16389;50.126;8.450;2023-05-07T00:41:00;1.15;;;1.00;;
29412;SDS011;16389;50.126;8.450;2023-05-07T00:43:27;0.70;;;0.70;;
29412;SDS011;16389;50.126;8.450;2023-05-07T00:45:53;1.45;;;1.00;;
29412;SDS011;16389;50.126;8.450;2023-05-07T00:48:19;1.30;;;0.90;;
29412;SDS011;16389;50.126;8.450;2023-05-07T00:50:45;1.90;;;0.90;;
29412;SDS011;16389;50.126;8.450;2023-05-07T00:53:12;0.80;;;0.80;;
29412;SDS011;16389;50.126;8.450;2023-05-07T00:55:38;0.93;;;0.80;;
29412;SDS011;16389;50.126;8.450;2023-05-07T00:58:03;4.63;;;1.13;;
29412;SDS011;16389;50.126;8.450;2023-05-07T01:00:29;1.10;;;1.00;;
29412;SDS011;16389;50.126;8.450;2023-05-07T01:02:55;1.13;;;1.00;;
29412;SDS011;16389;50.126;8.450;2023-05-07T01:05:21;1.10;;;1.00;;
29412;SDS011;16389;50.126;8.450;2023-05-07T01:07:48;0.80;;;0.80;;
29412;SDS011;16389;50.126;8.450;2023-05-07T01:10:17;1.38;;;1.23;;
29412;SDS011;16389;50.126;8.450;2023-05-07T01:12:43;1.20;;;1.00;;
29412;SDS011;16389;50.126;8.450;2023-05-07T01:15:12;0.93;;;0.90;;
29412;SDS011;16389;50.126;8.450;2023-05-07T01:17:38;2.10;;;0.93;;
29412;SDS011;16389;50.126;8.450;2023-05-07T01:20:06;1.00;;;0.90;;
29412;SDS011;16389;50.126;8.450;2023-05-07T01:22:33;1.33;;;0.82;;
29412;SDS011;16389;50.126;8.450;2023-05-07T01:25:03;3.38;;;0.90;;
29412;SDS011;16389;50.126;8.450;2023-05-07T01:27:29;0.98;;;0.90;;
29412;SDS011;16389;50.126;8.450;2023-05-07T01:29:55;1.08;;;0.95;;
29412;SDS011;16389;50.126;8.450;2023-05-07T01:32:23;2.55;;;0.80;;
29412;SDS011;16389;50.126;8.450;2023-05-07T01:34:57;0.70;;;0.70;;
29412;SDS011;16389;50.126;8.450;2023-05-07T01:37:25;1.00;;;1.00;;
29412;SDS011;16389;50.126;8.450;2023-05-07T01:39:51;1.33;;;1.00;;
29412;SDS011;16389;50.126;8.450;2023-05-07T01:42:18;0.77;;;0.77;;
29412;SDS011;16389;50.126;8.450;2023-05-07T01:44:43;2.05;;;1.20;;
29412;SDS011;16389;50.126;8.450;2023-05-07T01:47:09;1.38;;;1.00;;
29412;SDS011;16389;50.126;8.450;2023-05-07T01:49:36;1.52;;;1.02;;
29412;SDS011;16389;50.126;8.450;2023-05-07T01:52:02;1.05;;;0.95;;
29412;SDS011;16389;50.126;8.450;2023-05-07T01:54:29;1.70;;;1.25;;
29412;SDS011;16389;50.126;8.450;2023-05-07T01:56:58;1.10;;;1.00;;
29412;SDS011;16389;50.126;8.450;2023-05-07T01:59:24;1.10;;;0.80;;
29412;SDS011;16389;50.126;8.450;2023-05-07T02:01:49;1.98;;;1.13;;
29412;SDS011;16389;50.126;8.450;2023-05-07T02:04:15;2.42;;;1.13;;
29412;SDS011;16389;50.126;8.450;2023-05-07T02:06:41;1.10;;;1.00;;
29412;SDS011;16389;50.126;8.450;2023-05-07T02:09:06;0.90;;;0.90;;
29412;SDS011;16389;50.126;8.450;2023-05-07T02:11:33;1.60;;;0.90;;
29412;SDS011;16389;50.126;8.450;2023-05-07T02:13:59;0.85;;;0.85;;
29412;SDS011;16389;50.126;8.450;2023-05-07T02:16:25;1.90;;;0.98;;
29412;SDS011;16389;50.126;8.450;2023-05-07T02:18:50;1.08;;;0.95;;
29412;SDS011;16389;50.126;8.450;2023-05-07T02:21:16;1.27;;;1.15;;
29412;SDS011;16389;50.126;8.450;2023-05-07T02:23:41;1.23;;;1.00;;
29412;SDS011;16389;50.126;8.450;2023-05-07T02:26:07;1.10;;;0.90;;
29412;SDS011;16389;50.126;8.450;2023-05-07T02:28:33;2.45;;;1.00;;
29412;SDS011;16389;50.126;8.450;2023-05-07T02:31:02;0.93;;;0.93;;
29412;SDS011;16389;50.126;8.450;2023-05-07T02:33:28;1.98;;;1.10;;
29412;SDS011;16389;50.126;8.450;2023-05-07T02:35:53;1.20;;;1.05;;
29412;SDS011;16389;50.126;8.450;2023-05-07T02:38:19;1.60;;;1.00;;
29412;SDS011;16389;50.126;8.450;2023-05-07T02:40:45;1.05;;;0.95;;
29412;SDS011;16389;50.126;8.450;2023-05-07T02:43:10;1.48;;;1.20;;
29412;SDS011;16389;50.126;8.450;2023-05-07T02:45:36;1.00;;;0.80;;
29412;SDS011;16389;50.126;8.450;2023-05-07T02:48:02;1.58;;;1.00;;
29412;SDS011;16389;50.126;8.450;2023-05-07T02:50:28;1.55;;;1.20;;
29412;SDS011;16389;50.126;8.450;2023-05-07T02:52:54;1.65;;;0.98;;
29412;SDS011;16389;50.126;8.450;2023-05-07T02:55:20;1.23;;;1.13;;
29412;SDS011;16389;50.126;8.450;2023-05-07T02:57:46;1.10;;;0.88;;
29412;SDS011;16389;50.126;8.450;2023-05-07T03:00:13;0.98;;;0.85;;
29412;SDS011;16389;50.126;8.450;2023-05-07T03:02:41;1.60;;;1.10;;
29412;SDS011;16389;50.126;8.450;2023-05-07T03:05:06;1.20;;;1.10;;
29412;SDS011;16389;50.126;8.450;2023-05-07T03:07:33;1.10;;;1.00;;
29412;SDS011;16389;50.126;8.450;2023-05-07T03:10:00;3.17;;;1.08;;
29412;SDS011;16389;50.126;8.450;2023-05-07T03:12:25;1.13;;;1.02;;
29412;SDS011;16389;50.126;8.450;2023-05-07T03:14:51;2.47;;;1.00;;
29412;SDS011;16389;50.126;8.450;2023-05-07T03:17:16;1.85;;;1.33;;
29412;SDS011;16389;50.126;8.450;2023-05-07T03:19:42;1.60;;;1.13;;
29412;SDS011;16389;50.126;8.450;2023-05-07T03:22:08;1.13;;;1.02;;
29412;SDS011;16389;50.126;8.450;2023-05-07T03:24:33;2.22;;;1.08;;
29412;SDS011;16389;50.126;8.450;2023-05-07T03:26:59;2.35;;;1.10;;
29412;SDS011;16389;50.126;8.450;2023-05-07T03:29:26;1.20;;;1.10;;
29412;SDS011;16389;50.126;8.450;2023-05-07T03:31:51;3.05;;;1.10;;
29412;SDS011;16389;50.126;8.450;2023-05-07T03:34:17;1.25;;;1.10;;
29412;SDS011;16389;50.126;8.450;2023-05-07T03:36:47;0.77;;;0.77;;
29412;SDS011;16389;50.126;8.450;2023-05-07T03:39:16;2.90;;;0.90;;
29412;SDS011;16389;50.126;8.450;2023-05-07T03:41:41;2.45;;;1.20;;
29412;SDS011;16389;50.126;8.450;2023-05-07T03:44:07;0.90;;;0.90;;
29412;SDS011;16389;50.126;8.450;2023-05-07T03:46:33;1.38;;;0.95;;
29412;SDS011;16389;50.126;8.450;2023-05-07T03:48:59;1.35;;;0.93;;
29412;SDS011;16389;50.126;8.450;2023-05-07T03:51:25;1.27;;;1.00;;
29412;SDS011;16389;50.126;8.450;2023-05-07T03:53:51;0.95;;;0.90;;
29412;SDS011;16389;50.126;8.450;2023-05-07T03:56:22;1.35;;;1.00;;
29412;SDS011;16389;50.126;8.450;2023-05-07T03:58:47;1.30;;;1.05;;
29412;SDS011;16389;50.126;8.450;2023-05-07T04:01:13;1.92;;;1.13;;
29412;SDS011;16389;50.126;8.450;2023-05-07T04:03:39;1.33;;;1.10;;
29412;SDS011;16389;50.126;8.450;2023-05-07T04:06:05;2.05;;;1.23;;
29412;SDS011;16389;50.126;8.450;2023-05-07T04:08:30;1.88;;;1.10;;
29412;SDS011;16389;50.126;8.450;2023-05-07T04:10:56;2.13;;;1.00;;
29412;SDS011;16389;50.126;8.450;2023-05-07T04:13:22;1.80;;;1.13;;
29412;SDS011;16389;50.126;8.450;2023-05-07T04:15:48;3.53;;;1.20;;
29412;SDS011;16389;50.126;8.450;2023-05-07T04:18:14;1.50;;;1.00;;
29412;SDS011;16389;50.126;8.450;2023-05-07T04:20:40;1.20;;;1.10;;
29412;SDS011;16389;50.126;8.450;2023-05-07T04:23:06;2.83;;;2.55;;
29412;SDS011;16389;50.126;8.450;2023-05-07T04:25:32;2.33;;;1.20;;
29412;SDS011;16389;50.126;8.450;2023-05-07T04:27:58;1.35;;;1.25;;
29412;SDS011;16389;50.126;8.450;2023-05-07T04:30:24;1.77;;;1.27;;
29412;SDS011;16389;50.126;8.450;2023-05-07T04:32:49;3.95;;;1.10;;
29412;SDS011;16389;50.126;8.450;2023-05-07T04:35:15;1.30;;;1.20;;
29412;SDS011;16389;50.126;8.450;2023-05-07T04:37:41;1.33;;;1.00;;
29412;SDS011;16389;50.126;8.450;2023-05-07T04:40:07;1.67;;;1.20;;
29412;SDS011;16389;50.126;8.450;2023-05-07T04:42:33;1.45;;;1.25;;
29412;SDS011;16389;50.126;8.450;2023-05-07T04:44:59;0.90;;;0.90;;
29412;SDS011;16389;50.126;8.450;2023-05-07T04:47:25;1.48;;;1.20;;
29412;SDS011;16389;50.126;8.450;2023-05-07T04:49:50;1.17;;;1.00;;
29412;SDS011;16389;50.126;8.450;2023-05-07T04:52:16;1.33;;;1.15;;
29412;SDS011;16389;50.126;8.450;2023-05-07T04:54:41;1.48;;;1.38;;
29412;SDS011;16389;50.126;8.450;2023-05-07T04:57:07;1.50;;;1.38;;
29412;SDS011;16389;50.126;8.450;2023-05-07T04:59:33;2.17;;;1.05;;
29412;SDS011;16389;50.126;8.450;2023-05-07T05:01:59;2.13;;;1.17;;
29412;SDS011;16389;50.126;8.450;2023-05-07T05:04:25;1.20;;;1.10;;
29412;SDS011;16389;50.126;8.450;2023-05-07T05:06:50;1.35;;;1.20;;
29412;SDS011;16389;50.126;8.450;2023-05-07T05:09:16;1.48;;;1.00;;
29412;SDS011;16389;50.126;8.450;2023-05-07T05:11:42;2.35;;;1.10;;
29412;SDS011;16389;50.126;8.450;2023-05-07T05:14:08;1.48;;;1.00;;
29412;SDS011;16389;50.126;8.450;2023-05-07T05:16:33;1.70;;;1.35;;
29412;SDS011;16389;50.126;8.450;2023-05-07T05:19:01;1.40;;;1.10;;
29412;SDS011;16389;50.126;8.450;2023-05-07T05:21:27;1.30;;;1.20;;
29412;SDS011;16389;50.126;8.450;2023-05-07T05:23:52;2.22;;;0.90;;
29412;SDS011;16389;50.126;8.450;2023-05-07T05:26:18;2.47;;;1.10;;
29412;SDS011;16389;50.126;8.450;2023-05-07T05:28:46;3.63;;;1.20;;
29412;SDS011;16389;50.126;8.450;2023-05-07T05:31:12;2.53;;;1.30;;
29412;SDS011;16389;50.126;8.450;2023-05-07T05:33:39;1.23;;;1.13;;
29412;SDS011;16389;50.126;8.450;2023-05-07T05:36:05;3.25;;;1.40;;
29412;SDS011;16389;50.126;8.450;2023-05-07T05:38:31;1.60;;;1.10;;
29412;SDS011;16389;50.126;8.450;2023-05-07T05:40:57;1.10;;;1.00;;
29412;SDS011;16389;50.126;8.450;2023-05-07T05:43:22;3.05;;;1.00;;
29412;SDS011;16389;50.126;8.450;2023-05-07T05:45:48;2.17;;;1.00;;
29412;SDS011;16389;50.126;8.450;2023-05-07T05:48:13;1.92;;;1.27;;
29412;SDS011;16389;50.126;8.450;2023-05-07T05:50:39;1.98;;;1.20;;
29412;SDS011;16389;50.126;8.450;2023-05-07T05:53:05;1.35;;;1.20;;
29412;SDS011;16389;50.126;8.450;2023-05-07T05:55:30;2.47;;;1.10;;
29412;SDS011;16389;50.126;8.450;2023-05-07T05:57:57;1.50;;;1.20;;
29412;SDS011;16389;50.126;8.450;2023-05-07T06:00:23;1.27;;;1.02;;
29412;SDS011;16389;50.126;8.450;2023-05-07T06:02:49;1.50;;;1.20;;
29412;SDS011;16389;50.126;8.450;2023-05-07T06:05:14;2.08;;;0.95;;
29412;SDS011;16389;50.126;8.450;2023-05-07T06:07:40;1.33;;;1.02;;
29412;SDS011;16389;50.126;8.450;2023-05-07T06:10:06;1.88;;;1.13;;
29412;SDS011;16389;50.126;8.450;2023-05-07T06:12:32;1.20;;;1.10;;
29412;SDS011;16389;50.126;8.450;2023-05-07T06:14:58;1.20;;;1.10;;
29412;SDS011;16389;50.126;8.450;2023-05-07T06:17:23;1.98;;;1.20;;
29412;SDS011;16389;50.126;8.450;2023-05-07T06:19:49;1.50;;;1.10;;
29412;SDS011;16389;50.126;8.450;2023-05-07T06:22:15;1.40;;;1.30;;
29412;SDS011;16389;50.126;8.450;2023-05-07T06:24:40;1.85;;;0.98;;
29412;SDS011;16389;50.126;8.450;2023-05-07T06:27:06;1.30;;;1.20;;
29412;SDS011;16389;50.126;8.450;2023-05-07T06:29:31;1.50;;;1.35;;
29412;SDS011;16389;50.126;8.450;2023-05-07T06:32:08;2.00;;;1.17;;
29412;SDS011;16389;50.126;8.450;2023-05-07T06:34:37;1.48;;;1.10;;
29412;SDS011;16389;50.126;8.450;2023-05-07T06:37:04;1.25;;;1.15;;
29412;SDS011;16389;50.126;8.450;2023-05-07T06:39:29;1.77;;;1.50;;
29412;SDS011;16389;50.126;8.450;2023-05-07T06:41:55;1.35;;;1.17;;
29412;SDS011;16389;50.126;8.450;2023-05-07T06:44:21;1.20;;;1.10;;
29412;SDS011;16389;50.126;8.450;2023-05-07T06:46:47;1.45;;;1.20;;
29412;SDS011;16389;50.126;8.450;2023-05-07T06:49:13;2.88;;;1.35;;
29412;SDS011;16389;50.126;8.450;2023-05-07T06:51:39;1.30;;;1.20;;
29412;SDS011;16389;50.126;8.450;2023-05-07T06:54:05;1.40;;;1.17;;
29412;SDS011;16389;50.126;8.450;2023-05-07T06:56:31;1.55;;;1.40;;
29412;SDS011;16389;50.126;8.450;2023-05-07T06:58:57;1.60;;;1.20;;
29412;SDS011;16389;50.126;8.450;2023-05-07T07:01:23;2.13;;;1.50;;
29412;SDS011;16389;50.126;8.450;2023-05-07T07:03:48;2.17;;;1.50;;
29412;SDS011;16389;50.126;8.450;2023-05-07T07:06:14;1.92;;;1.30;;
29412;SDS011;16389;50.126;8.450;2023-05-07T07:08:52;1.23;;;1.13;;
29412;SDS011;16389;50.126;8.450;2023-05-07T07:11:18;2.00;;;1.55;;
29412;SDS011;16389;50.126;8.450;2023-05-07T07:13:46;1.40;;;1.27;;
29412;SDS011;16389;50.126;8.450;2023-05-07T07:16:15;4.07;;;1.63;;
29412;SDS011;16389;50.126;8.450;2023-05-07T07:18:44;1.58;;;1.40;;
29412;SDS011;16389;50.126;8.450;2023-05-07T07:21:13;1.75;;;1.40;;
29412;SDS011;16389;50.126;8.450;2023-05-07T07:23:39;1.58;;;1.48;;
29412;SDS011;16389;50.126;8.450;2023-05-07T07:26:05;2.10;;;1.90;;
29412;SDS011;16389;50.126;8.450;2023-05-07T07:28:31;1.38;;;1.27;;
29412;SDS011;16389;50.126;8.450;2023-05-07T07:31:13;1.75;;;1.50;;
29412;SDS011;16389;50.126;8.450;2023-05-07T07:33:42;1.92;;;1.50;;
29412;SDS011;16389;50.126;8.450;2023-05-07T07:36:11;2.70;;;1.40;;
29412;SDS011;16389;50.126;8.450;2023-05-07T07:38:38;1.70;;;1.30;;
29412;SDS011;16389;50.126;8.450;2023-05-07T07:41:04;2.38;;;1.50;;
29412;SDS011;16389;50.126;8.450;2023-05-07T07:43:48;1.55;;;1.45;;
29412;SDS011;16389;50.126;8.450;2023-05-07T07:46:15;1.88;;;1.63;;
29412;SDS011;16389;50.126;8.450;2023-05-07T07:48:40;2.03;;;1.65;;
29412;SDS011;16389;50.126;8.450;2023-05-07T07:51:06;1.73;;;1.40;;
29412;SDS011;16389;50.126;8.450;2023-05-07T07:53:54;1.70;;;1.60;;
29412;SDS011;16389;50.126;8.450;2023-05-07T07:56:19;1.60;;;1.50;;
29412;SDS011;16389;50.126;8.450;2023-05-07T07:58:48;2.33;;;1.40;;
29412;SDS011;16389;50.126;8.450;2023-05-07T08:01:14;1.65;;;1.50;;
29412;SDS011;16389;50.126;8.450;2023-05-07T08:03:43;1.88;;;1.75;;
29412;SDS011;16389;50.126;8.450;2023-05-07T08:06:09;2.00;;;1.80;;
29412;SDS011;16389;50.126;8.450;2023-05-07T08:08:35;3.03;;;1.77;;
29412;SDS011;16389;50.126;8.450;2023-05-07T08:11:01;1.90;;;1.80;;
29412;SDS011;16389;50.126;8.450;2023-05-07T08:13:27;1.60;;;1.50;;
29412;SDS011;16389;50.126;8.450;2023-05-07T08:15:57;1.80;;;1.70;;
29412;SDS011;16389;50.126;8.450;2023-05-07T08:18:23;1.85;;;1.60;;
29412;SDS011;16389;50.126;8.450;2023-05-07T08:20:50;2.30;;;2.10;;
29412;SDS011;16389;50.126;8.450;2023-05-07T08:23:15;2.28;;;2.08;;
29412;SDS011;16389;50.126;8.450;2023-05-07T08:25:42;2.25;;;1.85;;
29412;SDS011;16389;50.126;8.450;2023-05-07T08:28:07;1.77;;;1.67;;
29412;SDS011;16389;50.126;8.450;2023-05-07T08:30:36;2.60;;;2.25;;
29412;SDS011;16389;50.126;8.450;2023-05-07T08:33:02;3.90;;;1.83;;
29412;SDS011;16389;50.126;8.450;2023-05-07T08:35:28;2.10;;;1.90;;
29412;SDS011;16389;50.126;8.450;2023-05-07T08:37:54;2.33;;;1.80;;
29412;SDS011;16389;50.126;8.450;2023-05-07T08:40:22;2.30;;;2.10;;
29412;SDS011;16389;50.126;8.450;2023-05-07T08:45:17;1.90;;;1.80;;
29412;SDS011;16389;50.126;8.450;2023-05-07T08:47:47;2.28;;;1.98;;
29412;SDS011;16389;50.126;8.450;2023-05-07T08:50:20;2.33;;;2.13;;
29412;SDS011;16389;50.126;8.450;2023-05-07T08:52:49;1.77;;;1.67;;
29412;SDS011;16389;50.126;8.450;2023-05-07T08:55:15;2.20;;;2.00;;
29412;SDS011;16389;50.126;8.450;2023-05-07T08:57:44;2.70;;;2.10;;
29412;SDS011;16389;50.126;8.450;2023-05-07T09:00:10;2.83;;;2.63;;
29412;SDS011;16389;50.126;8.450;2023-05-07T09:02:36;2.53;;;2.33;;
29412;SDS011;16389;50.126;8.450;2023-05-07T09:05:02;2.92;;;1.65;;
29412;SDS011;16389;50.126;8.450;2023-05-07T09:07:33;4.07;;;2.47;;
29412;SDS011;16389;50.126;8.450;2023-05-07T09:10:02;4.15;;;2.40;;
29412;SDS011;16389;50.126;8.450;2023-05-07T09:12:29;2.70;;;2.50;;
29412;SDS011;16389;50.126;8.450;2023-05-07T09:14:55;2.42;;;2.22;;
29412;SDS011;16389;50.126;8.450;2023-05-07T09:17:21;2.60;;;2.40;;
29412;SDS011;16389;50.126;8.450;2023-05-07T09:19:50;2.25;;;2.05;;
29412;SDS011;16389;50.126;8.450;2023-05-07T09:22:18;2.22;;;2.03;;
29412;SDS011;16389;50.126;8.450;2023-05-07T09:24:47;2.50;;;2.30;;
29412;SDS011;16389;50.126;8.450;2023-05-07T09:27:17;3.63;;;2.13;;
29412;SDS011;16389;50.126;8.450;2023-05-07T09:29:43;2.55;;;2.35;;
29412;SDS011;16389;50.126;8.450;2023-05-07T09:32:10;2.38;;;2.17;;
29412;SDS011;16389;50.126;8.450;2023-05-07T09:34:36;2.05;;;1.90;;
29412;SDS011;16389;50.126;8.450;2023-05-07T09:37:05;2.08;;;1.92;;
29412;SDS011;16389;50.126;8.450;2023-05-07T09:39:48;2.70;;;2.50;;
29412;SDS011;16389;50.126;8.450;2023-05-07T09:42:14;2.40;;;2.20;;
29412;SDS011;16389;50.126;8.450;2023-05-07T09:44:41;2.28;;;2.08;;
29412;SDS011;16389;50.126;8.450;2023-05-07T09:47:11;2.45;;;2.25;;
29412;SDS011;16389;50.126;8.450;2023-05-07T09:49:47;2.97;;;2.38;;
29412;SDS011;16389;50.126;8.450;2023-05-07T09:52:16;2.95;;;2.63;;
29412;SDS011;16389;50.126;8.450;2023-05-07T09:54:50;2.40;;;2.20;;
29412;SDS011;16389;50.126;8.450;2023-05-07T09:57:21;2.78;;;2.45;;
29412;SDS011;16389;50.126;8.450;2023-05-07T10:02:14;2.10;;;2.00;;
29412;SDS011;16389;50.126;8.450;2023-05-07T10:04:43;2.40;;;2.20;;
29412;SDS011;16389;50.126;8.450;2023-05-07T10:07:09;2.00;;;1.90;;
29412;SDS011;16389;50.126;8.450;2023-05-07T10:09:36;2.72;;;2.20;;
29412;SDS011;16389;50.126;8.450;2023-05-07T10:12:07;2.35;;;2.15;;
29412;SDS011;16389;50.126;8.450;2023-05-07T10:14:34;2.15;;;2.05;;
29412;SDS011;16389;50.126;8.450;2023-05-07T10:17:03;2.47;;;2.10;;
29412;SDS011;16389;50.126;8.450;2023-05-07T10:19:29;2.85;;;2.55;;
29412;SDS011;16389;50.126;8.450;2023-05-07T10:22:02;1.98;;;1.83;;
29412;SDS011;16389;50.126;8.450;2023-05-07T10:24:34;1.98;;;1.80;;
29412;SDS011;16389;50.126;8.450;2023-05-07T10:27:08;2.38;;;2.17;;
29412;SDS011;16389;50.126;8.450;2023-05-07T10:29:49;2.10;;;2.00;;
29412;SDS011;16389;50.126;8.450;2023-05-07T10:34:58;1.90;;;1.80;;
29412;SDS011;16389;50.126;8.450;2023-05-07T10:37:27;2.00;;;1.80;;
29412;SDS011;16389;50.126;8.450;2023-05-07T10:39:54;2.10;;;1.90;;
29412;SDS011;16389;50.126;8.450;2023-05-07T10:42:22;2.20;;;2.00;;
29412;SDS011;16389;50.126;8.450;2023-05-07T10:44:50;2.13;;;1.90;;
29412;SDS011;16389;50.126;8.450;2023-05-07T10:47:19;2.10;;;2.00;;
29412;SDS011;16389;50.126;8.450;2023-05-07T10:52:11;2.33;;;2.13;;
29412;SDS011;16389;50.126;8.450;2023-05-07T10:54:42;2.47;;;2.27;;
29412;SDS011;16389;50.126;8.450;2023-05-07T11:00:00;2.40;;;2.20;;
29412;SDS011;16389;50.126;8.450;2023-05-07T11:05:31;2.10;;;2.00;;
29412;SDS011;16389;50.126;8.450;2023-05-07T11:08:01;2.63;;;2.42;;
29412;SDS011;16389;50.126;8.450;2023-05-07T11:13:40;2.22;;;1.90;;
29412;SDS011;16389;50.126;8.450;2023-05-07T11:16:22;2.38;;;2.13;;
29412;SDS011;16389;50.126;8.450;2023-05-07T11:18:53;2.35;;;1.90;;
29412;SDS011;16389;50.126;8.450;2023-05-07T11:21:38;2.53;;;1.95;;
29412;SDS011;16389;50.126;8.450;2023-05-07T11:24:15;2.15;;;1.95;;
29412;SDS011;16389;50.126;8.450;2023-05-07T11:26:50;2.35;;;2.15;;
29412;SDS011;16389;50.126;8.450;2023-05-07T11:29:20;2.58;;;2.38;;
29412;SDS011;16389;50.126;8.450;2023-05-07T11:31:54;2.17;;;1.98;;
29412;SDS011;16389;50.126;8.450;2023-05-07T11:34:24;2.20;;;2.00;;
29412;SDS011;16389;50.126;8.450;2023-05-07T11:36:55;2.20;;;1.92;;
29412;SDS011;16389;50.126;8.450;2023-05-07T11:39:34;2.33;;;2.15;;
29412;SDS011;16389;50.126;8.450;2023-05-07T11:42:04;2.28;;;2.08;;
29412;SDS011;16389;50.126;8.450;2023-05-07T11:44:41;1.92;;;1.83;;
29412;SDS011;16389;50.126;8.450;2023-05-07T11:47:11;2.65;;;2.45;;
29412;SDS011;16389;50.126;8.450;2023-05-07T11:49:52;2.20;;;2.00;;
29412;SDS011;16389;50.126;8.450;2023-05-07T11:52:19;2.00;;;1.80;;
29412;SDS011;16389;50.126;8.450;2023-05-07T11:54:59;1.90;;;1.63;;
29412;SDS011;16389;50.126;8.450;2023-05-07T12:00:01;4.05;;;2.00;;
29412;SDS011;16389;50.126;8.450;2023-05-07T12:02:40;4.27;;;1.90;;
29412;SDS011;16389;50.126;8.450;2023-05-07T12:05:29;1.80;;;1.70;;
29412;SDS011;16389;50.126;8.450;2023-05-07T12:08:04;2.13;;;1.92;;
29412;SDS011;16389;50.126;8.450;2023-05-07T12:10:33;1.60;;;1.50;;
29412;SDS011;16389;50.126;8.450;2023-05-07T12:13:19;1.98;;;1.80;;
29412;SDS011;16389;50.126;8.450;2023-05-07T12:16:04;2.00;;;1.90;;
29412;SDS011;16389;50.126;8.450;2023-05-07T12:18:35;2.00;;;1.80;;
29412;SDS011;16389;50.126;8.450;2023-05-07T12:21:03;2.50;;;2.30;;
29412;SDS011;16389;50.126;8.450;2023-05-07T12:23:33;2.30;;;2.10;;
29412;SDS011;16389;50.126;8.450;2023-05-07T12:26:01;2.83;;;2.47;;
29412;SDS011;16389;50.126;8.450;2023-05-07T12:28:28;1.83;;;1.58;;
29412;SDS011;16389;50.126;8.450;2023-05-07T12:31:01;1.88;;;1.70;;
29412;SDS011;16389;50.126;8.450;2023-05-07T12:33:32;2.00;;;1.90;;
29412;SDS011;16389;50.126;8.450;2023-05-07T12:36:14;1.90;;;1.80;;
29412;SDS011;16389;50.126;8.450;2023-05-07T12:38:42;2.33;;;2.13;;
29412;SDS011;16389;50.126;8.450;2023-05-07T12:41:10;1.77;;;1.67;;
29412;SDS011;16389;50.126;8.450;2023-05-07T12:43:56;1.90;;;1.63;;
29412;SDS011;16389;50.126;8.450;2023-05-07T12:46:46;1.80;;;1.70;;
29412;SDS011;16389;50.126;8.450;2023-05-07T12:49:26;1.80;;;1.70;;
29412;SDS011;16389;50.126;8.450;2023-05-07T12:51:53;2.00;;;1.50;;
29412;SDS011;16389;50.126;8.450;2023-05-07T12:54:39;1.83;;;1.73;;
29412;SDS011;16389;50.126;8.450;2023-05-07T12:57:09;1.60;;;1.50;;
29412;SDS011;16389;50.126;8.450;2023-05-07T12:59:38;1.60;;;1.50;;
29412;SDS011;16389;50.126;8.450;2023-05-07T13:02:08;2.35;;;1.40;;
29412;SDS011;16389;50.126;8.450;2023-05-07T13:04:45;1.70;;;1.60;;
29412;SDS011;16389;50.126;8.450;2023-05-07T13:07:14;1.50;;;1.40;;
29412;SDS011;16389;50.126;8.450;2023-05-07T13:09:40;2.92;;;1.67;;
29412;SDS011;16389;50.126;8.450;2023-05-07T13:12:37;1.40;;;1.30;;
29412;SDS011;16389;50.126;8.450;2023-05-07T13:15:06;1.58;;;1.48;;
29412;SDS011;16389;50.126;8.450;2023-05-07T13:17:37;1.42;;;1.33;;
29412;SDS011;16389;50.126;8.450;2023-05-07T13:20:06;1.80;;;1.70;;
29412;SDS011;16389;50.126;8.450;2023-05-07T13:22:42;2.47;;;1.50;;
29412;SDS011;16389;50.126;8.450;2023-05-07T13:25:08;1.70;;;1.60;;
29412;SDS011;16389;50.126;8.450;2023-05-07T13:27:34;1.70;;;1.60;;
29412;SDS011;16389;50.126;8.450;2023-05-07T13:30:04;2.03;;;1.50;;
29412;SDS011;16389;50.126;8.450;2023-05-07T13:32:30;1.70;;;1.60;;
29412;SDS011;16389;50.126;8.450;2023-05-07T13:34:56;1.70;;;1.60;;
29412;SDS011;16389;50.126;8.450;2023-05-07T13:37:22;2.33;;;1.83;;
29412;SDS011;16389;50.126;8.450;2023-05-07T13:39:50;2.70;;;1.70;;
29412;SDS011;16389;50.126;8.450;2023-05-07T13:42:16;1.52;;;1.42;;
29412;SDS011;16389;50.126;8.450;2023-05-07T13:44:45;1.80;;;1.70;;
29412;SDS011;16389;50.126;8.450;2023-05-07T13:47:11;1.60;;;1.50;;
29412;SDS011;16389;50.126;8.450;2023-05-07T13:49:37;2.22;;;1.70;;
29412;SDS011;16389;50.126;8.450;2023-05-07T13:52:03;1.83;;;1.70;;
29412;SDS011;16389;50.126;8.450;2023-05-07T13:54:35;1.70;;;1.60;;
29412;SDS011;16389;50.126;8.450;2023-05-07T13:57:03;1.60;;;1.50;;
29412;SDS011;16389;50.126;8.450;2023-05-07T13:59:31;1.60;;;1.50;;
29412;SDS011;16389;50.126;8.450;2023-05-07T14:02:00;1.85;;;1.75;;
29412;SDS011;16389;50.126;8.450;2023-05-07T14:04:26;1.45;;;1.35;;
29412;SDS011;16389;50.126;8.450;2023-05-07T14:06:58;1.83;;;1.40;;
29412;SDS011;16389;50.126;8.450;2023-05-07T14:12:04;1.65;;;1.55;;
29412;SDS011;16389;50.126;8.450;2023-05-07T14:14:39;1.40;;;1.30;;
29412;SDS011;16389;50.126;8.450;2023-05-07T14:17:08;1.65;;;1.55;;
29412;SDS011;16389;50.126;8.450;2023-05-07T14:19:37;1.20;;;1.20;;
29412;SDS011;16389;50.126;8.450;2023-05-07T14:22:09;1.50;;;1.40;;
29412;SDS011;16389;50.126;8.450;2023-05-07T14:24:44;1.50;;;1.30;;
29412;SDS011;16389;50.126;8.450;2023-05-07T14:27:10;1.50;;;1.40;;
29412;SDS011;16389;50.126;8.450;2023-05-07T14:29:38;1.58;;;1.48;;
29412;SDS011;16389;50.126;8.450;2023-05-07T14:32:05;1.83;;;1.40;;
29412;SDS011;16389;50.126;8.450;2023-05-07T14:34:37;1.30;;;1.17;;
29412;SDS011;16389;50.126;8.450;2023-05-07T14:37:03;1.55;;;1.45;;
29412;SDS011;16389;50.126;8.450;2023-05-07T14:39:36;1.30;;;1.20;;
29412;SDS011;16389;50.126;8.450;2023-05-07T14:42:05;1.92;;;1.23;;
29412;SDS011;16389;50.126;8.450;2023-05-07T14:44:33;1.50;;;1.40;;
29412;SDS011;16389;50.126;8.450;2023-05-07T14:47:08;1.40;;;1.30;;
29412;SDS011;16389;50.126;8.450;2023-05-07T14:49:38;1.42;;;1.33;;
29412;SDS011;16389;50.126;8.450;2023-05-07T14:52:04;1.50;;;1.40;;
29412;SDS011;16389;50.126;8.450;2023-05-07T14:54:34;1.40;;;1.30;;
29412;SDS011;16389;50.126;8.450;2023-05-07T14:57:01;1.45;;;1.35;;
29412;SDS011;16389;50.126;8.450;2023-05-07T14:59:27;1.40;;;1.30;;
29412;SDS011;16389;50.126;8.450;2023-05-07T15:02:00;1.17;;;1.10;;
29412;SDS011;16389;50.126;8.450;2023-05-07T15:04:30;1.35;;;1.25;;
29412;SDS011;16389;50.126;8.450;2023-05-07T15:09:57;1.45;;;1.35;;
29412;SDS011;16389;50.126;8.450;2023-05-07T15:12:23;1.40;;;1.30;;
29412;SDS011;16389;50.126;8.450;2023-05-07T15:14:49;1.38;;;1.30;;
29412;SDS011;16389;50.126;8.450;2023-05-07T15:17:14;1.75;;;1.42;;
29412;SDS011;16389;50.126;8.450;2023-05-07T15:19:40;1.80;;;1.70;;
29412;SDS011;16389;50.126;8.450;2023-05-07T15:22:06;1.70;;;1.60;;